Terminal Aerodrome Forecast
Issued by NWS Shreveport, LA

Home | Current Version | Previous Version | Text Only | Print | Product List | Glossary On
Versions: 1 2 3 4 5 6 7 8 9 10 11 12 13 14 15 16 17
000
FTUS44 KSHV 052334
TAFSHV
TAF
KSHV 052334Z 0600/0624 15009KT P6SM SCT050 BKN110 BKN250
     FM060400 15008KT P6SM BKN110 BKN250
     FM061200 15007KT P6SM BKN015
     FM061600 15009KT P6SM BKN030
     FM061800 15010KT P6SM BKN040=

USA.gov is the U.S. government's official web portal to all federal, state and local government web resources and services.